createdAt,value
2019-03-04T00:01:34.296Z,8.50
2019-03-04T00:04:04.958Z,8.50
2019-03-04T00:06:35.462Z,8.50
2019-03-04T00:09:07.044Z,8.50
2019-03-04T00:11:39.218Z,8.40
2019-03-04T00:14:10.077Z,8.50
2019-03-04T00:16:40.671Z,8.50
2019-03-04T00:19:12.312Z,8.50
2019-03-04T00:21:43.022Z,8.50
2019-03-04T00:24:13.688Z,8.50
2019-03-04T00:26:44.558Z,8.50
2019-03-04T00:29:15.390Z,8.50
2019-03-04T00:31:46.167Z,8.50
2019-03-04T00:34:17.090Z,8.50
2019-03-04T00:36:47.614Z,8.50
2019-03-04T00:39:18.320Z,8.50
2019-03-04T00:41:49.201Z,8.50
2019-03-04T00:44:20.104Z,8.50
2019-03-04T00:46:50.701Z,8.50
2019-03-04T00:49:21.739Z,8.50
2019-03-04T00:51:52.253Z,8.50
2019-03-04T00:54:23.141Z,8.50
2019-03-04T00:56:53.847Z,8.40
2019-03-04T00:59:24.681Z,8.50
2019-03-04T01:01:55.554Z,8.40
2019-03-04T01:04:26.218Z,8.40
2019-03-04T01:06:56.807Z,8.40
2019-03-04T01:09:27.512Z,8.40
2019-03-04T01:11:58.052Z,8.40
2019-03-04T01:14:28.973Z,8.40
2019-03-04T01:16:59.419Z,8.40
2019-03-04T01:19:30.561Z,8.40
2019-03-04T01:22:01.090Z,8.40
2019-03-04T01:24:32.022Z,8.50
2019-03-04T01:27:02.916Z,8.60
2019-03-04T01:29:33.654Z,8.50
2019-03-04T01:32:04.432Z,8.50
2019-03-04T01:34:36.069Z,8.50
2019-03-04T01:37:06.886Z,8.50
2019-03-04T01:39:37.587Z,8.50
2019-03-04T01:42:08.236Z,8.50
2019-03-04T01:44:39.440Z,8.40
2019-03-04T01:47:09.972Z,8.50
2019-03-04T01:49:40.908Z,8.60
2019-03-04T01:52:11.373Z,8.50
2019-03-04T01:54:41.902Z,8.50
2019-03-04T01:57:12.930Z,8.40
2019-03-04T01:59:43.582Z,8.40
2019-03-04T02:02:14.385Z,8.40
2019-03-04T02:04:44.825Z,8.50
2019-03-04T02:07:15.547Z,8.50
2019-03-04T02:09:46.002Z,8.50
2019-03-04T02:12:17.117Z,8.40
2019-03-04T02:14:47.845Z,8.40
2019-03-04T02:17:19.037Z,8.50
2019-03-04T02:19:50.723Z,8.50
2019-03-04T02:22:22.259Z,8.50
2019-03-04T02:24:52.713Z,8.50
2019-03-04T02:27:23.447Z,8.50
2019-03-04T02:29:53.998Z,8.50
2019-03-04T02:32:24.649Z,8.40
2019-03-04T02:34:55.262Z,8.40
2019-03-04T02:37:25.803Z,8.50
2019-03-04T02:39:56.647Z,8.50
2019-03-04T02:42:27.177Z,8.50
2019-03-04T02:44:57.916Z,8.50
2019-03-04T02:47:28.673Z,8.60
2019-03-04T02:50:00.515Z,8.60
2019-03-04T02:52:31.365Z,8.60
2019-03-04T02:55:02.139Z,8.60
2019-03-04T02:57:33.348Z,8.50
2019-03-04T03:00:04.117Z,8.50
2019-03-04T03:02:34.818Z,8.50
2019-03-04T03:05:06.271Z,8.50
2019-03-04T03:07:36.988Z,8.60
2019-03-04T03:10:07.772Z,8.50
2019-03-04T03:12:38.260Z,8.50
2019-03-04T03:15:09.366Z,8.50
2019-03-04T03:17:40.163Z,8.50
2019-03-04T03:20:11.410Z,8.50
2019-03-04T03:22:42.044Z,8.60
2019-03-04T03:25:12.571Z,8.60
2019-03-04T03:27:43.481Z,8.60
2019-03-04T03:30:14.591Z,8.60
2019-03-04T03:32:45.410Z,8.70
2019-03-04T03:35:16.191Z,8.60
2019-03-04T03:37:46.857Z,8.60
2019-03-04T03:40:17.495Z,8.50
2019-03-04T03:42:48.016Z,8.50
2019-03-04T03:45:18.777Z,8.50
2019-03-04T03:47:50.604Z,8.50
2019-03-04T03:50:21.103Z,8.60
2019-03-04T03:52:51.942Z,8.60
2019-03-04T03:55:23.148Z,8.60
2019-03-04T03:57:53.845Z,8.60
2019-03-04T04:00:25.089Z,8.60
2019-03-04T04:02:56.923Z,8.70
2019-03-04T04:05:27.965Z,8.60
2019-03-04T04:07:58.709Z,8.70
2019-03-04T04:10:29.763Z,8.70
2019-03-04T04:13:03.843Z,8.70
2019-03-04T04:15:34.696Z,8.70
2019-03-04T04:18:05.568Z,8.70
2019-03-04T04:20:36.282Z,8.70
2019-03-04T04:23:06.850Z,8.70
2019-03-04T04:25:37.589Z,8.70
2019-03-04T04:28:09.790Z,8.80
2019-03-04T04:30:40.895Z,8.80
2019-03-04T04:33:11.518Z,8.80
2019-03-04T04:35:42.438Z,8.70
2019-03-04T04:38:12.962Z,8.80
2019-03-04T04:40:43.786Z,8.70
2019-03-04T04:43:14.428Z,8.70
2019-03-04T04:45:45.110Z,8.80
2019-03-04T04:48:15.775Z,8.80
2019-03-04T04:50:46.421Z,8.90
2019-03-04T04:53:17.176Z,8.80
2019-03-04T04:55:47.806Z,8.90
2019-03-04T04:58:18.644Z,8.90
2019-03-04T05:00:49.779Z,8.80
2019-03-04T05:03:20.552Z,8.80
2019-03-04T05:05:51.359Z,8.90
2019-03-04T05:08:22.219Z,8.90
2019-03-04T05:10:53.011Z,8.90
2019-03-04T05:13:23.967Z,8.90
2019-03-04T05:15:54.648Z,8.90
2019-03-04T05:18:25.406Z,9.00
2019-03-04T05:20:56.005Z,8.90
2019-03-04T05:23:27.022Z,8.90
2019-03-04T05:25:57.779Z,8.90
2019-03-04T05:28:28.521Z,9.00
2019-03-04T05:31:00.275Z,9.00
2019-03-04T05:33:31.322Z,9.00
2019-03-04T05:36:02.259Z,9.10
2019-03-04T05:38:34.035Z,9.10
2019-03-04T05:41:04.887Z,9.10
2019-03-04T05:43:35.752Z,9.10
2019-03-04T05:46:06.862Z,9.10
2019-03-04T05:48:37.753Z,9.00
2019-03-04T05:51:08.462Z,9.00
2019-03-04T05:53:39.127Z,9.00
2019-03-04T05:56:10.284Z,9.00
2019-03-04T05:58:41.188Z,9.10
2019-03-04T06:01:31.772Z,9.20
2019-03-04T06:04:07.512Z,9.20
2019-03-04T06:06:56.854Z,9.20
2019-03-04T06:09:27.439Z,9.30
2019-03-04T06:11:57.975Z,9.30
2019-03-04T06:14:28.684Z,9.30
2019-03-04T06:16:59.220Z,9.30
2019-03-04T06:19:31.000Z,9.30
2019-03-04T06:22:01.598Z,9.40
2019-03-04T06:24:32.614Z,9.40
2019-03-04T06:27:03.425Z,9.40
2019-03-04T06:29:33.931Z,9.40
2019-03-04T06:32:04.812Z,9.40
2019-03-04T06:34:35.499Z,9.40
2019-03-04T06:37:06.556Z,9.40
2019-03-04T06:39:38.920Z,9.40
2019-03-04T06:42:09.963Z,9.40
2019-03-04T06:44:40.621Z,9.40
2019-03-04T06:47:11.175Z,9.40
2019-03-04T06:49:44.081Z,9.40
2019-03-04T06:52:15.098Z,9.50
2019-03-04T06:55:08.262Z,9.50
2019-03-04T06:57:45.605Z,9.50
2019-03-04T07:00:46.152Z,9.60
2019-03-04T07:03:26.737Z,9.60
2019-03-04T07:05:57.577Z,9.60
2019-03-04T07:09:00.624Z,9.60
2019-03-04T07:11:33.051Z,9.60
2019-03-04T07:14:04.323Z,9.60
2019-03-04T07:16:34.972Z,9.60
2019-03-04T07:19:13.810Z,9.60
2019-03-04T07:21:45.396Z,9.60
2019-03-04T07:24:16.362Z,9.70
2019-03-04T07:26:47.424Z,9.70
2019-03-04T07:29:18.236Z,9.80
2019-03-04T07:31:49.031Z,9.80
2019-03-04T07:34:19.745Z,9.90
2019-03-04T07:36:50.567Z,10.00
2019-03-04T07:39:22.718Z,10.10
2019-03-04T07:42:01.274Z,10.10
2019-03-04T07:44:31.890Z,10.10
2019-03-04T07:47:02.729Z,10.10
2019-03-04T07:49:34.756Z,10.10
2019-03-04T07:52:05.211Z,10.20
2019-03-04T07:54:35.931Z,10.30
2019-03-04T07:57:06.551Z,10.40
2019-03-04T07:59:37.197Z,10.40
2019-03-04T08:02:07.849Z,10.50
2019-03-04T08:04:38.465Z,10.40
2019-03-04T08:07:47.995Z,10.40
2019-03-04T08:11:11.923Z,10.30
2019-03-04T08:13:46.595Z,10.30
2019-03-04T08:16:17.155Z,10.40
2019-03-04T08:18:57.581Z,10.60
2019-03-04T08:21:29.713Z,10.70
2019-03-04T08:24:00.541Z,10.90
2019-03-04T08:26:31.371Z,11.10
2019-03-04T08:29:02.033Z,11.20
2019-03-04T08:31:34.041Z,11.20
2019-03-04T08:34:04.904Z,11.30
2019-03-04T08:36:35.935Z,11.40
2019-03-04T08:39:08.835Z,11.40
2019-03-04T08:41:40.685Z,11.40
2019-03-04T08:44:11.178Z,11.50
2019-03-04T08:46:41.799Z,11.50
2019-03-04T08:49:12.463Z,11.60
2019-03-04T08:51:43.272Z,11.70
2019-03-04T08:54:13.933Z,11.70
2019-03-04T08:56:44.883Z,11.80
2019-03-04T08:59:17.300Z,11.80
2019-03-04T09:01:47.996Z,11.80
2019-03-04T09:04:18.898Z,11.90
2019-03-04T09:06:50.000Z,11.90
2019-03-04T09:09:21.620Z,12.00
2019-03-04T09:11:52.616Z,12.10
2019-03-04T09:14:23.914Z,12.10
2019-03-04T09:16:54.856Z,12.10
2019-03-04T09:19:25.500Z,12.20
2019-03-04T09:21:56.501Z,12.20
2019-03-04T09:24:27.160Z,12.20
2019-03-04T09:26:58.272Z,12.30
2019-03-04T09:29:28.940Z,12.30
2019-03-04T09:31:59.806Z,12.40
2019-03-04T09:34:30.386Z,12.40
2019-03-04T09:37:02.529Z,12.40
2019-03-04T09:39:33.552Z,12.60
2019-03-04T09:42:13.014Z,12.60
2019-03-04T09:44:43.921Z,12.60
2019-03-04T09:47:14.606Z,12.70
2019-03-04T09:49:45.426Z,12.70
2019-03-04T09:52:21.809Z,12.80
2019-03-04T09:54:52.689Z,12.80
2019-03-04T09:57:23.241Z,12.90
2019-03-04T09:59:53.891Z,13.00
2019-03-04T10:02:32.893Z,13.10
2019-03-04T10:05:43.535Z,13.20
2019-03-04T10:08:32.623Z,13.10
2019-03-04T10:11:13.667Z,13.30
2019-03-04T10:13:53.803Z,13.40
2019-03-04T10:16:51.477Z,13.40
2019-03-04T10:19:50.827Z,13.40
2019-03-04T10:22:46.541Z,13.40
2019-03-04T10:25:53.357Z,13.50
2019-03-04T10:28:51.272Z,13.70
2019-03-04T10:31:50.336Z,13.80
2019-03-04T10:34:48.961Z,13.80
2019-03-04T10:38:08.522Z,13.90
2019-03-04T10:41:02.330Z,13.90
2019-03-04T10:44:14.870Z,13.90
2019-03-04T10:46:59.098Z,14.10
2019-03-04T10:50:02.130Z,14.10
2019-03-04T10:52:11.602Z,14.40
2019-03-04T10:54:42.452Z,14.60
2019-03-04T10:57:12.979Z,14.70
2019-03-04T10:59:43.671Z,14.80
2019-03-04T11:02:14.580Z,14.90
2019-03-04T11:04:45.434Z,15.00
2019-03-04T11:07:16.218Z,15.10
2019-03-04T11:09:47.062Z,15.10
2019-03-04T11:12:17.970Z,15.10
2019-03-04T11:14:48.625Z,15.10
2019-03-04T11:17:19.461Z,14.90
2019-03-04T11:19:50.299Z,14.90
2019-03-04T11:22:21.055Z,14.90
2019-03-04T11:25:01.034Z,15.00
2019-03-04T11:27:31.597Z,15.10
2019-03-04T11:30:02.211Z,15.20
2019-03-04T11:32:33.143Z,15.40
2019-03-04T11:35:03.831Z,15.50
2019-03-04T11:37:34.605Z,15.70
2019-03-04T11:43:51.405Z,15.90
2019-03-04T11:46:24.151Z,15.90
2019-03-04T11:48:54.880Z,15.80
2019-03-04T11:51:25.769Z,15.70
2019-03-04T11:53:56.470Z,15.50
2019-03-04T11:56:27.211Z,15.40
2019-03-04T11:58:57.894Z,15.40
2019-03-04T12:01:49.417Z,15.30
2019-03-04T12:04:19.992Z,15.30
2019-03-04T12:06:51.538Z,15.30
2019-03-04T12:09:22.361Z,15.30
2019-03-04T12:11:53.074Z,15.20
2019-03-04T12:14:23.727Z,15.20
2019-03-04T12:16:54.514Z,15.10
2019-03-04T12:19:25.163Z,15.10
2019-03-04T12:21:56.058Z,14.90
2019-03-04T12:24:26.595Z,14.80
2019-03-04T12:26:57.364Z,14.80
2019-03-04T12:29:28.191Z,14.90
2019-03-04T12:32:03.768Z,14.90
2019-03-04T12:34:34.370Z,15.10
2019-03-04T12:37:05.943Z,15.10
2019-03-04T12:39:36.515Z,15.10
2019-03-04T12:42:07.363Z,15.30
2019-03-04T12:53:43.010Z,17.00
2019-03-04T12:56:13.430Z,17.20
2019-03-04T12:58:44.023Z,17.10
2019-03-04T13:01:14.767Z,17.30
2019-03-04T13:03:45.513Z,17.30
2019-03-04T13:06:16.064Z,17.10
2019-03-04T13:08:47.079Z,17.20
2019-03-04T13:11:17.801Z,17.50
2019-03-04T13:13:48.636Z,17.80
2019-03-04T13:16:19.231Z,17.80
2019-03-04T13:18:49.735Z,17.50
2019-03-04T13:21:20.525Z,17.10
2019-03-04T13:23:52.129Z,16.90
2019-03-04T13:26:22.680Z,16.60
2019-03-04T13:28:53.197Z,16.40
2019-03-04T13:31:24.015Z,16.40
2019-03-04T13:33:54.600Z,16.10
2019-03-04T13:36:25.294Z,16.00
2019-03-04T13:38:55.923Z,15.90
2019-03-04T13:41:27.661Z,15.80
2019-03-04T13:43:58.268Z,15.80
2019-03-04T13:46:29.110Z,15.60
2019-03-04T13:48:59.905Z,15.60
2019-03-04T13:51:30.262Z,15.60
2019-03-04T13:54:00.828Z,15.80
2019-03-04T13:56:31.524Z,15.80
2019-03-04T13:59:02.042Z,15.90
2019-03-04T14:01:32.908Z,16.00
2019-03-04T14:04:03.838Z,16.10
2019-03-04T14:06:34.340Z,16.20
2019-03-04T14:09:06.097Z,16.20
2019-03-04T14:11:38.389Z,16.20
2019-03-04T14:14:09.054Z,16.10
2019-03-04T14:16:39.540Z,16.10
2019-03-04T14:19:10.380Z,16.10
2019-03-04T14:21:41.237Z,16.00
2019-03-04T14:24:11.882Z,15.90
2019-03-04T14:26:42.424Z,15.80
2019-03-04T14:29:13.021Z,15.80
2019-03-04T14:31:43.772Z,15.80
2019-03-04T14:34:14.211Z,15.80
2019-03-04T14:36:44.851Z,15.70
2019-03-04T14:39:16.784Z,15.60
2019-03-04T14:41:47.343Z,15.60
2019-03-04T14:44:18.151Z,15.60
2019-03-04T14:46:48.877Z,15.60
2019-03-04T14:49:19.342Z,15.60
2019-03-04T14:51:50.459Z,15.70
2019-03-04T14:54:21.119Z,15.80
2019-03-04T14:56:51.776Z,15.80
2019-03-04T14:59:22.591Z,15.90
2019-03-04T15:01:53.135Z,15.70
2019-03-04T15:04:23.560Z,15.70
2019-03-04T15:06:53.983Z,15.60
2019-03-04T15:09:24.644Z,15.60
2019-03-04T15:11:55.321Z,15.50
2019-03-04T15:14:26.000Z,15.50
2019-03-04T15:17:03.231Z,15.50
2019-03-04T15:19:28.866Z,15.50
2019-03-04T15:21:59.658Z,15.50
2019-03-04T15:24:30.669Z,15.50
2019-03-04T15:27:01.141Z,15.50
2019-03-04T15:29:31.804Z,15.40
2019-03-04T15:32:02.576Z,15.40
2019-03-04T15:34:33.300Z,15.40
2019-03-04T15:37:04.302Z,15.40
2019-03-04T15:39:34.998Z,15.40
2019-03-04T15:42:05.532Z,15.40
2019-03-04T15:44:36.146Z,15.40
2019-03-04T15:47:06.858Z,15.40
2019-03-04T15:49:37.620Z,15.30
2019-03-04T15:52:08.237Z,15.40
2019-03-04T15:54:38.992Z,15.40
2019-03-04T15:57:11.358Z,15.30
2019-03-04T15:59:42.170Z,15.30
2019-03-04T16:02:15.189Z,15.30
2019-03-04T16:04:46.126Z,15.30
2019-03-04T16:07:17.254Z,15.30
2019-03-04T16:09:48.100Z,15.30
2019-03-04T16:12:22.033Z,15.30
2019-03-04T16:14:52.617Z,15.30
2019-03-04T16:17:23.145Z,15.40
2019-03-04T16:19:53.873Z,15.40
2019-03-04T16:22:24.412Z,15.40
2019-03-04T16:24:56.268Z,15.40
2019-03-04T16:27:27.105Z,15.40
2019-03-04T16:29:57.993Z,15.30
2019-03-04T16:32:28.369Z,15.30
2019-03-04T16:34:58.985Z,15.30
2019-03-04T16:37:29.687Z,15.20
2019-03-04T16:40:00.525Z,15.30
2019-03-04T16:42:31.488Z,15.30
2019-03-04T16:45:02.069Z,15.30
2019-03-04T16:47:32.702Z,15.20
2019-03-04T16:50:03.782Z,15.20
2019-03-04T16:52:34.523Z,15.10
2019-03-04T16:55:05.380Z,15.10
2019-03-04T16:57:35.999Z,15.10
2019-03-04T17:00:08.513Z,15.10
2019-03-04T17:02:40.285Z,15.00
2019-03-04T17:05:12.336Z,15.00
2019-03-04T17:07:43.093Z,15.00
2019-03-04T17:10:14.411Z,14.90
2019-03-04T17:12:45.170Z,15.00
2019-03-04T17:15:18.058Z,14.90
2019-03-04T17:17:48.981Z,14.90
2019-03-04T17:20:20.174Z,14.80
2019-03-04T17:22:50.916Z,14.70
2019-03-04T17:25:42.237Z,14.70
2019-03-04T17:28:13.069Z,14.70
2019-03-04T17:30:44.108Z,14.70
2019-03-04T17:33:15.436Z,14.60
2019-03-04T17:35:46.360Z,14.60
2019-03-04T17:38:17.219Z,14.70
2019-03-04T17:40:48.547Z,14.60
2019-03-04T17:43:19.263Z,14.50
2019-03-04T17:45:49.775Z,14.60
2019-03-04T17:48:20.844Z,14.60
2019-03-04T17:50:52.221Z,14.60
2019-03-04T17:53:23.239Z,14.60
2019-03-04T17:55:54.217Z,14.40
2019-03-04T17:58:25.467Z,14.40
2019-03-04T18:00:56.613Z,14.50
2019-03-04T18:03:27.279Z,14.50
2019-03-04T18:05:59.283Z,14.60
2019-03-04T18:08:29.957Z,14.60
2019-03-04T18:11:00.834Z,14.60
2019-03-04T18:13:31.781Z,14.60
2019-03-04T18:16:02.303Z,14.70
2019-03-04T18:18:33.125Z,14.70
2019-03-04T18:21:05.553Z,14.70
2019-03-04T18:23:36.802Z,14.70
2019-03-04T18:26:17.722Z,14.80
2019-03-04T18:29:23.351Z,14.80
2019-03-04T18:32:14.340Z,14.80
2019-03-04T18:35:15.440Z,14.80
2019-03-04T18:38:14.972Z,14.80
2019-03-04T18:41:21.746Z,14.90
2019-03-04T18:44:21.165Z,14.90
2019-03-04T18:47:41.946Z,14.90
2019-03-04T18:50:14.008Z,15.00
2019-03-04T18:52:44.786Z,15.00
2019-03-04T18:55:18.274Z,15.00
2019-03-04T18:57:48.990Z,15.00
2019-03-04T19:00:21.544Z,15.10
2019-03-04T19:02:52.978Z,15.20
2019-03-04T19:05:24.542Z,15.20
2019-03-04T19:07:55.322Z,15.30
2019-03-04T19:10:26.569Z,15.20
2019-03-04T19:12:57.292Z,15.30
2019-03-04T19:15:28.259Z,15.30
2019-03-04T19:17:59.069Z,15.30
2019-03-04T19:20:30.104Z,15.20
2019-03-04T19:23:01.439Z,15.10
2019-03-04T19:25:32.771Z,15.00
2019-03-04T19:28:05.705Z,14.90
2019-03-04T19:30:36.790Z,14.90
2019-03-04T19:33:08.377Z,14.80
2019-03-04T19:35:39.149Z,14.70
2019-03-04T19:38:10.349Z,14.70
2019-03-04T19:40:41.233Z,14.70
2019-03-04T19:43:13.001Z,14.60
2019-03-04T19:45:44.582Z,14.60
2019-03-04T19:48:17.037Z,14.60
2019-03-04T19:50:48.741Z,14.50
2019-03-04T19:53:19.717Z,14.50
2019-03-04T19:55:50.447Z,14.50
2019-03-04T19:58:21.307Z,14.40
2019-03-04T20:00:52.127Z,14.40
2019-03-04T20:03:24.212Z,14.30
2019-03-04T20:05:55.164Z,14.30
2019-03-04T20:08:25.884Z,14.20
2019-03-04T20:10:57.241Z,14.20
2019-03-04T20:13:28.200Z,14.10
2019-03-04T20:15:59.076Z,14.10
2019-03-04T20:18:30.163Z,14.00
2019-03-04T20:21:01.185Z,14.00
2019-03-04T20:23:32.044Z,14.00
2019-03-04T20:26:02.889Z,14.00
2019-03-04T20:28:34.400Z,14.00
2019-03-04T20:31:05.310Z,14.00
2019-03-04T20:33:36.255Z,13.90
2019-03-04T20:36:06.842Z,13.90
2019-03-04T20:38:42.012Z,13.80
2019-03-04T20:41:16.208Z,13.80
2019-03-04T20:43:48.352Z,13.80
2019-03-04T20:46:19.313Z,13.80
2019-03-04T20:48:50.329Z,13.80
2019-03-04T20:51:21.238Z,13.80
2019-03-04T20:53:52.208Z,13.70
2019-03-04T20:56:22.929Z,13.70
2019-03-04T20:58:54.477Z,13.70
2019-03-04T21:01:26.063Z,13.70
2019-03-04T21:03:57.047Z,13.80
2019-03-04T21:06:28.141Z,13.80
2019-03-04T21:08:58.869Z,13.70
2019-03-04T21:11:31.039Z,13.60
2019-03-04T21:14:01.527Z,13.60
2019-03-04T21:16:32.396Z,13.50
2019-03-04T21:19:03.069Z,13.50
2019-03-04T21:21:33.857Z,13.50
2019-03-04T21:24:04.848Z,13.40
2019-03-04T21:26:39.786Z,13.40
2019-03-04T21:29:37.963Z,13.30
2019-03-04T21:32:33.392Z,13.30
2019-03-04T21:35:37.904Z,13.30
2019-03-04T21:38:09.734Z,13.20
2019-03-04T21:40:55.928Z,13.20
2019-03-04T21:43:37.823Z,13.20
2019-03-04T21:46:44.696Z,13.10
2019-03-04T21:49:16.586Z,13.10
2019-03-04T21:51:56.846Z,13.00
2019-03-04T21:54:27.658Z,13.00
2019-03-04T21:57:18.278Z,13.00
2019-03-04T21:59:49.047Z,12.90
2019-03-04T22:02:53.077Z,12.90
2019-03-04T22:05:23.892Z,12.90
2019-03-04T22:07:54.534Z,12.80
2019-03-04T22:10:25.337Z,12.80
2019-03-04T22:12:57.305Z,12.80
2019-03-04T22:15:28.414Z,12.80
2019-03-04T22:17:59.003Z,12.70
2019-03-04T22:20:29.607Z,12.70
2019-03-04T22:23:00.320Z,12.70
2019-03-04T22:25:31.130Z,12.70
2019-03-04T22:28:01.904Z,12.70
2019-03-04T22:30:32.467Z,12.70
2019-03-04T22:33:03.338Z,12.70
2019-03-04T22:35:33.874Z,12.70
2019-03-04T22:38:04.739Z,12.60
2019-03-04T22:40:35.332Z,12.60
2019-03-04T22:43:06.002Z,12.60
2019-03-04T22:45:36.723Z,12.60
2019-03-04T22:48:07.416Z,12.50
2019-03-04T22:50:38.097Z,12.50
2019-03-04T22:53:09.035Z,12.50
2019-03-04T22:55:39.682Z,12.50
2019-03-04T22:58:10.665Z,12.50
2019-03-04T23:01:41.774Z,12.40
2019-03-04T23:04:47.876Z,12.40
2019-03-04T23:07:39.109Z,12.30
2019-03-04T23:10:40.524Z,12.30
2019-03-04T23:13:52.819Z,12.20
2019-03-04T23:16:26.248Z,12.20
2019-03-04T23:18:57.092Z,12.10
2019-03-04T23:21:27.568Z,11.90
2019-03-04T23:23:58.244Z,11.80
2019-03-04T23:26:28.973Z,11.70
2019-03-04T23:28:59.562Z,11.60
2019-03-04T23:31:30.340Z,11.40
2019-03-04T23:34:00.862Z,11.30
2019-03-04T23:36:31.659Z,11.30
2019-03-04T23:39:02.288Z,11.20
2019-03-04T23:41:34.454Z,11.10
2019-03-04T23:44:05.180Z,11.10
2019-03-04T23:46:35.839Z,11.10
2019-03-04T23:49:07.536Z,11.00
2019-03-04T23:51:38.389Z,10.90
2019-03-04T23:54:08.879Z,10.80
2019-03-04T23:56:39.431Z,10.70
2019-03-04T23:59:10.237Z,10.70
